< < Back
Terminal Aerodrome Forecast


Current Version              Previous Versions:   1  2  3  4  5  6  7  8  9  

Terminal Aerodrome Forecast

046
FTUS42 KTAE 221120
TAFABY
TAF
KABY 221120Z 2212/2312 34008KT P6SM SCT250
     FM221400 02007KT P6SM SCT200
     FM230100 06004KT P6SM SKC=



Latest METAR

787
SAUS70 KWBC 221600 RRB
MTRABY
METAR KABY 221553Z VRB06KT 10SM CLR 24/10 A3020 RMK AO2 SLP225
T02390100


USA.gov is the U.S. government's official web portal to all federal, state and local government web resources and services.